METAR AND TAF INFORMATION
METAR FOR SERO
ADDS - METARS form results

(1617 UTC 26 October 2020)
Data provider http://aviationweather.gov/metar/data/
 
METAR text: SERO 261600Z 29006KT 9999 VCSH FEW016 OVC026 23/21 Q1013
Conditions at: SERO (SANTA ROSA , EC) observed 1600 UTC 26 October 2020
Temperature: 23.0°C (73°F)
Dewpoint: 21.0°C (70°F) [RH = 89%]
Pressure (altimeter): 29.91 inches Hg (1013.0 mb)
Winds: from the WNW (290 degrees) at 7 MPH (6 knots; 3.1 m/s)
Visibility: 6 or more miles (10+ km)
Ceiling: 2600 feet AGL
Clouds: few clouds at 1600 feet AGL
overcast cloud deck at 2600 feet AGL
Weather: VCSH  (showers in vicinity)

 AIRPORT MAP

 RUNWAY INFORMATION
Runway 09 Runway length 3255 ft Runway width 59 ft
Runway elevation 0 ft Runway displaced threshold 0 ft Runway heading 90
Runway 27 Runway length 3255 ft Runway width 59 ft
Runway elevation 0 ft Runway displaced threshold 0 ft Runway heading 270

 AIRPORT FREQUENCIES

 AIRPORT NEAR NAVIGATION AIDS